sensor_id;sensor_type;location;lat;lon;timestamp;P1;durP1;ratioP1;P2;durP2;ratioP2
70806;SDS011;58882;52.170;5.386;2023-04-24T00:01:55;1.85;;;1.00;;
70806;SDS011;58882;52.170;5.386;2023-04-24T00:04:22;1.60;;;1.00;;
70806;SDS011;58882;52.170;5.386;2023-04-24T00:06:52;1.08;;;0.88;;
70806;SDS011;58882;52.170;5.386;2023-04-24T00:09:23;1.10;;;0.70;;
70806;SDS011;58882;52.170;5.386;2023-04-24T00:11:50;2.15;;;0.90;;
70806;SDS011;58882;52.170;5.386;2023-04-24T00:14:17;1.30;;;0.90;;
70806;SDS011;58882;52.170;5.386;2023-04-24T00:16:44;1.70;;;0.90;;
70806;SDS011;58882;52.170;5.386;2023-04-24T00:19:11;3.35;;;0.80;;
70806;SDS011;58882;52.170;5.386;2023-04-24T00:21:39;0.98;;;0.60;;
70806;SDS011;58882;52.170;5.386;2023-04-24T00:24:07;0.77;;;0.60;;
70806;SDS011;58882;52.170;5.386;2023-04-24T00:26:35;1.33;;;0.80;;
70806;SDS011;58882;52.170;5.386;2023-04-24T00:29:02;1.95;;;0.80;;
70806;SDS011;58882;52.170;5.386;2023-04-24T00:31:28;2.15;;;0.73;;
70806;SDS011;58882;52.170;5.386;2023-04-24T00:33:57;2.08;;;0.85;;
70806;SDS011;58882;52.170;5.386;2023-04-24T00:36:24;1.00;;;0.80;;
70806;SDS011;58882;52.170;5.386;2023-04-24T00:38:51;1.67;;;1.02;;
70806;SDS011;58882;52.170;5.386;2023-04-24T00:41:18;2.50;;;1.20;;
70806;SDS011;58882;52.170;5.386;2023-04-24T00:43:45;1.02;;;0.90;;
70806;SDS011;58882;52.170;5.386;2023-04-24T00:46:12;3.53;;;1.00;;
70806;SDS011;58882;52.170;5.386;2023-04-24T00:48:39;2.08;;;1.00;;
70806;SDS011;58882;52.170;5.386;2023-04-24T00:51:07;1.90;;;1.05;;
70806;SDS011;58882;52.170;5.386;2023-04-24T00:53:34;4.93;;;1.20;;
70806;SDS011;58882;52.170;5.386;2023-04-24T00:56:02;2.55;;;1.00;;
70806;SDS011;58882;52.170;5.386;2023-04-24T00:58:29;2.42;;;1.17;;
70806;SDS011;58882;52.170;5.386;2023-04-24T01:00:57;2.20;;;1.13;;
70806;SDS011;58882;52.170;5.386;2023-04-24T01:03:28;2.38;;;1.40;;
70806;SDS011;58882;52.170;5.386;2023-04-24T01:05:58;2.60;;;1.30;;
70806;SDS011;58882;52.170;5.386;2023-04-24T01:08:25;1.55;;;1.10;;
70806;SDS011;58882;52.170;5.386;2023-04-24T01:10:55;2.45;;;1.35;;
70806;SDS011;58882;52.170;5.386;2023-04-24T01:13:23;1.63;;;1.10;;
70806;SDS011;58882;52.170;5.386;2023-04-24T01:15:50;2.83;;;1.23;;
70806;SDS011;58882;52.170;5.386;2023-04-24T01:18:17;3.33;;;1.50;;
70806;SDS011;58882;52.170;5.386;2023-04-24T01:20:44;2.40;;;1.35;;
70806;SDS011;58882;52.170;5.386;2023-04-24T01:23:12;3.88;;;1.50;;
70806;SDS011;58882;52.170;5.386;2023-04-24T01:25:40;3.40;;;1.60;;
70806;SDS011;58882;52.170;5.386;2023-04-24T01:28:07;2.50;;;1.60;;
70806;SDS011;58882;52.170;5.386;2023-04-24T01:30:33;2.42;;;1.60;;
70806;SDS011;58882;52.170;5.386;2023-04-24T01:33:00;3.47;;;1.50;;
70806;SDS011;58882;52.170;5.386;2023-04-24T01:35:27;2.30;;;1.50;;
70806;SDS011;58882;52.170;5.386;2023-04-24T01:37:54;4.70;;;2.20;;
70806;SDS011;58882;52.170;5.386;2023-04-24T01:40:21;3.63;;;1.80;;
70806;SDS011;58882;52.170;5.386;2023-04-24T01:42:48;4.03;;;2.50;;
70806;SDS011;58882;52.170;5.386;2023-04-24T01:45:15;4.32;;;2.30;;
70806;SDS011;58882;52.170;5.386;2023-04-24T01:47:42;3.40;;;2.00;;
70806;SDS011;58882;52.170;5.386;2023-04-24T01:50:10;3.25;;;1.90;;
70806;SDS011;58882;52.170;5.386;2023-04-24T01:52:38;6.43;;;2.22;;
70806;SDS011;58882;52.170;5.386;2023-04-24T01:55:05;3.35;;;2.00;;
70806;SDS011;58882;52.170;5.386;2023-04-24T01:57:33;8.07;;;2.40;;
70806;SDS011;58882;52.170;5.386;2023-04-24T02:00:00;4.07;;;1.80;;
70806;SDS011;58882;52.170;5.386;2023-04-24T02:02:27;3.90;;;2.00;;
70806;SDS011;58882;52.170;5.386;2023-04-24T02:04:56;3.60;;;2.20;;
70806;SDS011;58882;52.170;5.386;2023-04-24T02:07:23;4.88;;;2.10;;
70806;SDS011;58882;52.170;5.386;2023-04-24T02:09:50;5.10;;;2.30;;
70806;SDS011;58882;52.170;5.386;2023-04-24T02:12:17;3.40;;;1.98;;
70806;SDS011;58882;52.170;5.386;2023-04-24T02:14:44;6.00;;;2.20;;
70806;SDS011;58882;52.170;5.386;2023-04-24T02:17:11;3.63;;;2.20;;
70806;SDS011;58882;52.170;5.386;2023-04-24T02:19:39;3.97;;;2.10;;
70806;SDS011;58882;52.170;5.386;2023-04-24T02:22:06;5.45;;;2.80;;
70806;SDS011;58882;52.170;5.386;2023-04-24T02:24:33;3.72;;;2.10;;
70806;SDS011;58882;52.170;5.386;2023-04-24T02:27:00;4.43;;;2.30;;
70806;SDS011;58882;52.170;5.386;2023-04-24T02:29:29;4.93;;;2.60;;
70806;SDS011;58882;52.170;5.386;2023-04-24T02:31:56;5.13;;;2.20;;
70806;SDS011;58882;52.170;5.386;2023-04-24T02:34:23;5.70;;;2.50;;
70806;SDS011;58882;52.170;5.386;2023-04-24T02:36:51;5.43;;;2.47;;
70806;SDS011;58882;52.170;5.386;2023-04-24T02:39:20;9.70;;;2.03;;
70806;SDS011;58882;52.170;5.386;2023-04-24T02:41:47;4.18;;;2.22;;
70806;SDS011;58882;52.170;5.386;2023-04-24T02:44:15;4.32;;;1.98;;
70806;SDS011;58882;52.170;5.386;2023-04-24T02:46:43;6.10;;;2.10;;
70806;SDS011;58882;52.170;5.386;2023-04-24T02:49:10;5.63;;;2.13;;
70806;SDS011;58882;52.170;5.386;2023-04-24T02:51:38;3.92;;;1.80;;
70806;SDS011;58882;52.170;5.386;2023-04-24T02:54:08;3.22;;;1.92;;
70806;SDS011;58882;52.170;5.386;2023-04-24T02:56:36;5.35;;;2.10;;
70806;SDS011;58882;52.170;5.386;2023-04-24T02:59:06;3.15;;;1.92;;
70806;SDS011;58882;52.170;5.386;2023-04-24T03:01:33;4.45;;;1.90;;
70806;SDS011;58882;52.170;5.386;2023-04-24T03:04:00;4.13;;;2.05;;
70806;SDS011;58882;52.170;5.386;2023-04-24T03:06:27;4.38;;;1.80;;
70806;SDS011;58882;52.170;5.386;2023-04-24T03:08:54;3.70;;;1.98;;
70806;SDS011;58882;52.170;5.386;2023-04-24T03:11:21;4.20;;;2.20;;
70806;SDS011;58882;52.170;5.386;2023-04-24T03:13:48;2.97;;;1.77;;
70806;SDS011;58882;52.170;5.386;2023-04-24T03:16:15;3.13;;;1.70;;
70806;SDS011;58882;52.170;5.386;2023-04-24T03:18:41;2.40;;;1.40;;
70806;SDS011;58882;52.170;5.386;2023-04-24T03:21:09;3.17;;;1.58;;
70806;SDS011;58882;52.170;5.386;2023-04-24T03:23:36;4.82;;;1.65;;
70806;SDS011;58882;52.170;5.386;2023-04-24T03:26:02;2.33;;;1.30;;
70806;SDS011;58882;52.170;5.386;2023-04-24T03:28:30;1.63;;;1.10;;
70806;SDS011;58882;52.170;5.386;2023-04-24T03:30:59;2.10;;;1.33;;
70806;SDS011;58882;52.170;5.386;2023-04-24T03:33:30;4.10;;;1.38;;
70806;SDS011;58882;52.170;5.386;2023-04-24T03:36:00;2.72;;;1.40;;
70806;SDS011;58882;52.170;5.386;2023-04-24T03:38:35;3.35;;;1.10;;
70806;SDS011;58882;52.170;5.386;2023-04-24T03:41:18;2.25;;;1.10;;
70806;SDS011;58882;52.170;5.386;2023-04-24T03:43:48;1.40;;;0.85;;
70806;SDS011;58882;52.170;5.386;2023-04-24T03:46:15;3.53;;;0.98;;
70806;SDS011;58882;52.170;5.386;2023-04-24T03:48:49;1.75;;;0.90;;
70806;SDS011;58882;52.170;5.386;2023-04-24T03:51:18;2.67;;;1.10;;
70806;SDS011;58882;52.170;5.386;2023-04-24T03:53:47;1.08;;;0.90;;
70806;SDS011;58882;52.170;5.386;2023-04-24T03:56:18;3.83;;;0.98;;
70806;SDS011;58882;52.170;5.386;2023-04-24T03:58:45;1.02;;;0.80;;
70806;SDS011;58882;52.170;5.386;2023-04-24T04:01:12;1.73;;;0.90;;
70806;SDS011;58882;52.170;5.386;2023-04-24T04:03:50;3.38;;;1.08;;
70806;SDS011;58882;52.170;5.386;2023-04-24T04:06:20;4.35;;;1.00;;
70806;SDS011;58882;52.170;5.386;2023-04-24T04:08:49;1.40;;;0.95;;
70806;SDS011;58882;52.170;5.386;2023-04-24T04:11:16;1.38;;;0.85;;
70806;SDS011;58882;52.170;5.386;2023-04-24T04:13:44;3.70;;;1.20;;
70806;SDS011;58882;52.170;5.386;2023-04-24T04:16:11;2.50;;;1.10;;
70806;SDS011;58882;52.170;5.386;2023-04-24T04:18:39;2.40;;;0.93;;
70806;SDS011;58882;52.170;5.386;2023-04-24T04:21:06;1.40;;;0.70;;
70806;SDS011;58882;52.170;5.386;2023-04-24T04:23:33;2.20;;;0.82;;
70806;SDS011;58882;52.170;5.386;2023-04-24T04:26:12;1.52;;;0.80;;
70806;SDS011;58882;52.170;5.386;2023-04-24T04:28:54;3.22;;;0.80;;
70806;SDS011;58882;52.170;5.386;2023-04-24T04:31:21;1.52;;;0.90;;
70806;SDS011;58882;52.170;5.386;2023-04-24T04:33:48;3.28;;;1.02;;
70806;SDS011;58882;52.170;5.386;2023-04-24T04:36:15;3.33;;;0.88;;
70806;SDS011;58882;52.170;5.386;2023-04-24T04:38:47;6.80;;;1.17;;
70806;SDS011;58882;52.170;5.386;2023-04-24T04:41:37;3.00;;;1.10;;
70806;SDS011;58882;52.170;5.386;2023-04-24T04:44:07;3.45;;;1.10;;
70806;SDS011;58882;52.170;5.386;2023-04-24T04:46:35;3.40;;;1.25;;
70806;SDS011;58882;52.170;5.386;2023-04-24T04:49:14;2.42;;;1.23;;
70806;SDS011;58882;52.170;5.386;2023-04-24T04:51:43;3.13;;;1.38;;
70806;SDS011;58882;52.170;5.386;2023-04-24T04:54:11;4.57;;;1.30;;
70806;SDS011;58882;52.170;5.386;2023-04-24T04:56:38;2.55;;;1.30;;
70806;SDS011;58882;52.170;5.386;2023-04-24T04:59:05;2.20;;;1.42;;
70806;SDS011;58882;52.170;5.386;2023-04-24T05:01:32;2.75;;;1.40;;
70806;SDS011;58882;52.170;5.386;2023-04-24T05:03:59;3.40;;;1.67;;
70806;SDS011;58882;52.170;5.386;2023-04-24T05:06:26;4.80;;;2.00;;
70806;SDS011;58882;52.170;5.386;2023-04-24T05:08:54;3.60;;;1.70;;
70806;SDS011;58882;52.170;5.386;2023-04-24T05:11:40;4.25;;;1.80;;
70806;SDS011;58882;52.170;5.386;2023-04-24T05:14:06;2.63;;;1.15;;
70806;SDS011;58882;52.170;5.386;2023-04-24T05:16:36;5.32;;;1.45;;
70806;SDS011;58882;52.170;5.386;2023-04-24T05:19:04;4.88;;;1.98;;
70806;SDS011;58882;52.170;5.386;2023-04-24T05:21:35;4.18;;;1.70;;
70806;SDS011;58882;52.170;5.386;2023-04-24T05:24:03;3.92;;;1.90;;
70806;SDS011;58882;52.170;5.386;2023-04-24T05:26:48;3.05;;;1.70;;
70806;SDS011;58882;52.170;5.386;2023-04-24T05:29:19;4.55;;;1.80;;
70806;SDS011;58882;52.170;5.386;2023-04-24T05:31:46;3.50;;;1.58;;
70806;SDS011;58882;52.170;5.386;2023-04-24T05:34:13;6.90;;;2.00;;
70806;SDS011;58882;52.170;5.386;2023-04-24T05:36:44;3.10;;;1.63;;
70806;SDS011;58882;52.170;5.386;2023-04-24T05:39:11;3.13;;;1.70;;
70806;SDS011;58882;52.170;5.386;2023-04-24T05:41:37;4.55;;;1.98;;
70806;SDS011;58882;52.170;5.386;2023-04-24T05:44:04;4.18;;;1.50;;
70806;SDS011;58882;52.170;5.386;2023-04-24T05:46:31;3.83;;;1.42;;
70806;SDS011;58882;52.170;5.386;2023-04-24T05:48:58;4.63;;;1.90;;
70806;SDS011;58882;52.170;5.386;2023-04-24T05:51:25;2.83;;;1.42;;
70806;SDS011;58882;52.170;5.386;2023-04-24T05:53:52;6.13;;;2.17;;
70806;SDS011;58882;52.170;5.386;2023-04-24T05:56:19;5.57;;;2.00;;
70806;SDS011;58882;52.170;5.386;2023-04-24T05:58:47;3.15;;;1.30;;
70806;SDS011;58882;52.170;5.386;2023-04-24T06:01:14;3.25;;;1.38;;
70806;SDS011;58882;52.170;5.386;2023-04-24T06:03:44;6.05;;;1.73;;
70806;SDS011;58882;52.170;5.386;2023-04-24T06:06:12;1.50;;;1.10;;
70806;SDS011;58882;52.170;5.386;2023-04-24T06:08:39;3.67;;;1.23;;
70806;SDS011;58882;52.170;5.386;2023-04-24T06:11:06;3.55;;;1.00;;
70806;SDS011;58882;52.170;5.386;2023-04-24T06:13:33;2.60;;;1.00;;
70806;SDS011;58882;52.170;5.386;2023-04-24T06:16:22;3.13;;;0.80;;
70806;SDS011;58882;52.170;5.386;2023-04-24T06:18:57;2.25;;;0.80;;
70806;SDS011;58882;52.170;5.386;2023-04-24T06:21:24;1.63;;;0.90;;
70806;SDS011;58882;52.170;5.386;2023-04-24T06:23:51;3.40;;;0.82;;
70806;SDS011;58882;52.170;5.386;2023-04-24T06:26:18;0.82;;;0.52;;
70806;SDS011;58882;52.170;5.386;2023-04-24T06:28:46;3.42;;;0.80;;
70806;SDS011;58882;52.170;5.386;2023-04-24T06:31:12;3.08;;;1.00;;
70806;SDS011;58882;52.170;5.386;2023-04-24T06:33:39;1.83;;;0.50;;
70806;SDS011;58882;52.170;5.386;2023-04-24T06:36:08;2.25;;;0.70;;
70806;SDS011;58882;52.170;5.386;2023-04-24T06:38:35;2.45;;;1.00;;
70806;SDS011;58882;52.170;5.386;2023-04-24T06:41:02;3.38;;;1.17;;
70806;SDS011;58882;52.170;5.386;2023-04-24T06:43:31;1.30;;;0.88;;
70806;SDS011;58882;52.170;5.386;2023-04-24T06:45:59;4.97;;;2.30;;
70806;SDS011;58882;52.170;5.386;2023-04-24T06:48:26;7.78;;;3.35;;
70806;SDS011;58882;52.170;5.386;2023-04-24T06:50:53;7.25;;;3.17;;
70806;SDS011;58882;52.170;5.386;2023-04-24T06:53:20;7.63;;;3.45;;
70806;SDS011;58882;52.170;5.386;2023-04-24T06:55:46;9.45;;;3.72;;
70806;SDS011;58882;52.170;5.386;2023-04-24T06:58:13;8.38;;;3.63;;
70806;SDS011;58882;52.170;5.386;2023-04-24T07:00:41;7.25;;;2.70;;
70806;SDS011;58882;52.170;5.386;2023-04-24T07:03:08;8.85;;;3.72;;
70806;SDS011;58882;52.170;5.386;2023-04-24T07:05:35;8.75;;;4.22;;
70806;SDS011;58882;52.170;5.386;2023-04-24T07:08:03;10.45;;;4.55;;
70806;SDS011;58882;52.170;5.386;2023-04-24T07:10:30;8.68;;;3.30;;
70806;SDS011;58882;52.170;5.386;2023-04-24T07:12:57;7.15;;;3.20;;
70806;SDS011;58882;52.170;5.386;2023-04-24T07:15:23;9.40;;;4.60;;
70806;SDS011;58882;52.170;5.386;2023-04-24T07:17:50;9.15;;;4.45;;
70806;SDS011;58882;52.170;5.386;2023-04-24T07:20:17;9.82;;;5.10;;
70806;SDS011;58882;52.170;5.386;2023-04-24T07:22:44;9.02;;;4.13;;
70806;SDS011;58882;52.170;5.386;2023-04-24T07:25:11;11.55;;;4.97;;
70806;SDS011;58882;52.170;5.386;2023-04-24T07:27:38;13.27;;;4.90;;
70806;SDS011;58882;52.170;5.386;2023-04-24T07:30:05;8.57;;;3.90;;
70806;SDS011;58882;52.170;5.386;2023-04-24T07:32:33;7.60;;;3.45;;
70806;SDS011;58882;52.170;5.386;2023-04-24T07:34:59;8.77;;;3.88;;
70806;SDS011;58882;52.170;5.386;2023-04-24T07:37:26;10.18;;;3.80;;
70806;SDS011;58882;52.170;5.386;2023-04-24T07:39:54;11.55;;;4.20;;
70806;SDS011;58882;52.170;5.386;2023-04-24T07:42:21;8.27;;;4.22;;
70806;SDS011;58882;52.170;5.386;2023-04-24T07:44:48;10.57;;;4.18;;
70806;SDS011;58882;52.170;5.386;2023-04-24T07:47:15;9.63;;;3.90;;
70806;SDS011;58882;52.170;5.386;2023-04-24T07:49:42;11.05;;;3.80;;
70806;SDS011;58882;52.170;5.386;2023-04-24T07:52:10;10.70;;;4.15;;
70806;SDS011;58882;52.170;5.386;2023-04-24T07:54:36;9.07;;;3.70;;
70806;SDS011;58882;52.170;5.386;2023-04-24T07:57:03;10.57;;;4.05;;
70806;SDS011;58882;52.170;5.386;2023-04-24T07:59:32;9.23;;;4.32;;
70806;SDS011;58882;52.170;5.386;2023-04-24T08:01:59;9.00;;;4.05;;
70806;SDS011;58882;52.170;5.386;2023-04-24T08:04:27;11.82;;;4.28;;
70806;SDS011;58882;52.170;5.386;2023-04-24T08:06:54;9.38;;;3.95;;
70806;SDS011;58882;52.170;5.386;2023-04-24T08:09:21;11.73;;;4.25;;
70806;SDS011;58882;52.170;5.386;2023-04-24T08:11:49;11.50;;;4.13;;
70806;SDS011;58882;52.170;5.386;2023-04-24T08:14:16;9.98;;;4.18;;
70806;SDS011;58882;52.170;5.386;2023-04-24T08:16:42;9.93;;;3.70;;
70806;SDS011;58882;52.170;5.386;2023-04-24T08:19:09;10.27;;;3.75;;
70806;SDS011;58882;52.170;5.386;2023-04-24T08:21:36;12.75;;;3.50;;
70806;SDS011;58882;52.170;5.386;2023-04-24T08:24:03;9.82;;;3.65;;
70806;SDS011;58882;52.170;5.386;2023-04-24T08:26:33;9.70;;;3.28;;
70806;SDS011;58882;52.170;5.386;2023-04-24T08:29:00;8.32;;;2.90;;
70806;SDS011;58882;52.170;5.386;2023-04-24T08:31:28;9.38;;;2.80;;
70806;SDS011;58882;52.170;5.386;2023-04-24T08:33:55;8.00;;;2.83;;
70806;SDS011;58882;52.170;5.386;2023-04-24T08:36:22;7.13;;;2.50;;
70806;SDS011;58882;52.170;5.386;2023-04-24T08:38:58;5.90;;;2.35;;
70806;SDS011;58882;52.170;5.386;2023-04-24T08:41:25;12.32;;;2.85;;
70806;SDS011;58882;52.170;5.386;2023-04-24T08:43:53;13.38;;;3.15;;
70806;SDS011;58882;52.170;5.386;2023-04-24T08:46:24;9.65;;;2.63;;
70806;SDS011;58882;52.170;5.386;2023-04-24T08:48:51;10.48;;;3.38;;
70806;SDS011;58882;52.170;5.386;2023-04-24T08:51:18;9.70;;;2.40;;
70806;SDS011;58882;52.170;5.386;2023-04-24T08:53:46;11.13;;;2.40;;
70806;SDS011;58882;52.170;5.386;2023-04-24T08:56:13;11.50;;;2.42;;
70806;SDS011;58882;52.170;5.386;2023-04-24T08:58:40;10.82;;;2.30;;
70806;SDS011;58882;52.170;5.386;2023-04-24T09:01:07;6.93;;;2.00;;
70806;SDS011;58882;52.170;5.386;2023-04-24T09:03:35;13.88;;;2.30;;
70806;SDS011;58882;52.170;5.386;2023-04-24T09:06:03;11.18;;;2.10;;
70806;SDS011;58882;52.170;5.386;2023-04-24T09:08:32;10.45;;;2.00;;
70806;SDS011;58882;52.170;5.386;2023-04-24T09:10:59;9.52;;;1.92;;
70806;SDS011;58882;52.170;5.386;2023-04-24T09:13:28;6.65;;;1.77;;
70806;SDS011;58882;52.170;5.386;2023-04-24T09:15:57;8.38;;;2.20;;
70806;SDS011;58882;52.170;5.386;2023-04-24T09:18:24;7.05;;;1.83;;
70806;SDS011;58882;52.170;5.386;2023-04-24T09:25:55;9.02;;;2.10;;
70806;SDS011;58882;52.170;5.386;2023-04-24T09:28:29;13.55;;;1.70;;
70806;SDS011;58882;52.170;5.386;2023-04-24T09:31:03;9.77;;;2.17;;
70806;SDS011;58882;52.170;5.386;2023-04-24T09:34:03;10.82;;;1.90;;
70806;SDS011;58882;52.170;5.386;2023-04-24T09:36:37;9.63;;;1.75;;
70806;SDS011;58882;52.170;5.386;2023-04-24T09:39:13;8.23;;;1.90;;
70806;SDS011;58882;52.170;5.386;2023-04-24T09:41:45;7.03;;;1.88;;
70806;SDS011;58882;52.170;5.386;2023-04-24T09:44:18;8.48;;;1.88;;
70806;SDS011;58882;52.170;5.386;2023-04-24T09:46:53;10.88;;;2.10;;
70806;SDS011;58882;52.170;5.386;2023-04-24T09:49:25;8.50;;;1.88;;
70806;SDS011;58882;52.170;5.386;2023-04-24T09:52:06;9.52;;;1.95;;
70806;SDS011;58882;52.170;5.386;2023-04-24T09:54:34;10.25;;;2.10;;
70806;SDS011;58882;52.170;5.386;2023-04-24T09:57:03;8.63;;;1.92;;
70806;SDS011;58882;52.170;5.386;2023-04-24T09:59:30;8.77;;;1.58;;
70806;SDS011;58882;52.170;5.386;2023-04-24T10:01:57;9.43;;;2.08;;
70806;SDS011;58882;52.170;5.386;2023-04-24T10:04:26;7.18;;;2.00;;
70806;SDS011;58882;52.170;5.386;2023-04-24T10:06:55;9.13;;;1.80;;
70806;SDS011;58882;52.170;5.386;2023-04-24T10:09:24;8.35;;;1.83;;
70806;SDS011;58882;52.170;5.386;2023-04-24T10:11:53;9.07;;;2.08;;
70806;SDS011;58882;52.170;5.386;2023-04-24T10:16:49;9.30;;;1.92;;
70806;SDS011;58882;52.170;5.386;2023-04-24T10:19:18;7.13;;;1.70;;
70806;SDS011;58882;52.170;5.386;2023-04-24T10:21:46;7.53;;;1.80;;
70806;SDS011;58882;52.170;5.386;2023-04-24T10:24:13;9.10;;;1.80;;
70806;SDS011;58882;52.170;5.386;2023-04-24T10:26:42;8.15;;;1.90;;
70806;SDS011;58882;52.170;5.386;2023-04-24T10:31:39;4.40;;;1.20;;
70806;SDS011;58882;52.170;5.386;2023-04-24T10:34:07;6.00;;;1.40;;
70806;SDS011;58882;52.170;5.386;2023-04-24T10:36:36;4.45;;;1.20;;
70806;SDS011;58882;52.170;5.386;2023-04-24T10:39:10;5.53;;;1.30;;
70806;SDS011;58882;52.170;5.386;2023-04-24T10:41:38;8.35;;;1.38;;
70806;SDS011;58882;52.170;5.386;2023-04-24T10:46:37;4.40;;;1.58;;
70806;SDS011;58882;52.170;5.386;2023-04-24T10:49:06;3.83;;;1.13;;
70806;SDS011;58882;52.170;5.386;2023-04-24T10:54:27;3.85;;;1.00;;
70806;SDS011;58882;52.170;5.386;2023-04-24T10:59:49;3.65;;;0.90;;
70806;SDS011;58882;52.170;5.386;2023-04-24T11:02:39;7.90;;;1.10;;
70806;SDS011;58882;52.170;5.386;2023-04-24T11:05:10;4.28;;;0.82;;
70806;SDS011;58882;52.170;5.386;2023-04-24T11:08:24;2.88;;;0.80;;
70806;SDS011;58882;52.170;5.386;2023-04-24T11:10:45;4.05;;;0.90;;
70806;SDS011;58882;52.170;5.386;2023-04-24T11:13:14;19.75;;;1.15;;
70806;SDS011;58882;52.170;5.386;2023-04-24T11:27:11;5.05;;;1.48;;
70806;SDS011;58882;52.170;5.386;2023-04-24T11:29:47;4.32;;;0.90;;
70806;SDS011;58882;52.170;5.386;2023-04-24T11:37:37;6.18;;;0.80;;
70806;SDS011;58882;52.170;5.386;2023-04-24T11:40:05;6.07;;;0.98;;
70806;SDS011;58882;52.170;5.386;2023-04-24T11:42:38;4.65;;;1.00;;
70806;SDS011;58882;52.170;5.386;2023-04-24T11:45:08;4.93;;;0.88;;
70806;SDS011;58882;52.170;5.386;2023-04-24T11:47:38;4.55;;;0.60;;
70806;SDS011;58882;52.170;5.386;2023-04-24T11:50:06;2.92;;;0.77;;
70806;SDS011;58882;52.170;5.386;2023-04-24T11:52:41;1.45;;;0.47;;
70806;SDS011;58882;52.170;5.386;2023-04-24T11:57:46;4.40;;;0.80;;
70806;SDS011;58882;52.170;5.386;2023-04-24T12:00:18;3.97;;;0.80;;
70806;SDS011;58882;52.170;5.386;2023-04-24T12:02:47;1.90;;;0.40;;
70806;SDS011;58882;52.170;5.386;2023-04-24T12:05:27;1.88;;;0.80;;
70806;SDS011;58882;52.170;5.386;2023-04-24T12:07:57;3.92;;;1.45;;
70806;SDS011;58882;52.170;5.386;2023-04-24T12:10:25;1.38;;;0.60;;
70806;SDS011;58882;52.170;5.386;2023-04-24T12:12:54;3.65;;;0.73;;
70806;SDS011;58882;52.170;5.386;2023-04-24T12:15:22;2.58;;;0.68;;
70806;SDS011;58882;52.170;5.386;2023-04-24T12:17:50;3.17;;;0.70;;
70806;SDS011;58882;52.170;5.386;2023-04-24T12:20:23;3.55;;;0.80;;
70806;SDS011;58882;52.170;5.386;2023-04-24T12:22:52;2.47;;;0.77;;
70806;SDS011;58882;52.170;5.386;2023-04-24T12:25:27;5.05;;;0.90;;
70806;SDS011;58882;52.170;5.386;2023-04-24T12:30:33;4.78;;;1.00;;
70806;SDS011;58882;52.170;5.386;2023-04-24T12:33:01;3.80;;;0.90;;
70806;SDS011;58882;52.170;5.386;2023-04-24T12:35:30;4.28;;;1.08;;
70806;SDS011;58882;52.170;5.386;2023-04-24T12:38:06;4.63;;;1.10;;
70806;SDS011;58882;52.170;5.386;2023-04-24T12:40:34;5.72;;;1.20;;
70806;SDS011;58882;52.170;5.386;2023-04-24T12:43:13;2.33;;;0.85;;
70806;SDS011;58882;52.170;5.386;2023-04-24T12:45:41;5.03;;;1.08;;
70806;SDS011;58882;52.170;5.386;2023-04-24T12:48:08;5.10;;;1.10;;
70806;SDS011;58882;52.170;5.386;2023-04-24T12:50:35;6.40;;;1.20;;
70806;SDS011;58882;52.170;5.386;2023-04-24T12:53:01;5.20;;;1.30;;
70806;SDS011;58882;52.170;5.386;2023-04-24T12:55:28;5.28;;;1.10;;
70806;SDS011;58882;52.170;5.386;2023-04-24T12:57:55;8.65;;;1.58;;
70806;SDS011;58882;52.170;5.386;2023-04-24T13:00:22;8.18;;;1.40;;
70806;SDS011;58882;52.170;5.386;2023-04-24T13:02:49;6.35;;;1.42;;
70806;SDS011;58882;52.170;5.386;2023-04-24T13:05:16;5.28;;;1.17;;
70806;SDS011;58882;52.170;5.386;2023-04-24T13:07:43;6.78;;;1.27;;
70806;SDS011;58882;52.170;5.386;2023-04-24T13:10:10;7.72;;;1.42;;
70806;SDS011;58882;52.170;5.386;2023-04-24T13:12:37;7.07;;;1.55;;
70806;SDS011;58882;52.170;5.386;2023-04-24T13:15:05;7.65;;;1.58;;
70806;SDS011;58882;52.170;5.386;2023-04-24T13:17:33;11.68;;;1.60;;
70806;SDS011;58882;52.170;5.386;2023-04-24T13:19:59;7.97;;;1.65;;
70806;SDS011;58882;52.170;5.386;2023-04-24T13:22:26;6.70;;;1.35;;
70806;SDS011;58882;52.170;5.386;2023-04-24T13:24:53;8.32;;;1.65;;
70806;SDS011;58882;52.170;5.386;2023-04-24T13:27:20;12.57;;;2.13;;
70806;SDS011;58882;52.170;5.386;2023-04-24T13:29:47;7.97;;;1.70;;
70806;SDS011;58882;52.170;5.386;2023-04-24T13:32:14;11.40;;;1.80;;
70806;SDS011;58882;52.170;5.386;2023-04-24T13:34:41;6.75;;;1.38;;
70806;SDS011;58882;52.170;5.386;2023-04-24T13:37:08;8.48;;;1.70;;
70806;SDS011;58882;52.170;5.386;2023-04-24T13:39:35;11.75;;;1.95;;
70806;SDS011;58882;52.170;5.386;2023-04-24T13:42:02;6.55;;;1.67;;
70806;SDS011;58882;52.170;5.386;2023-04-24T13:44:30;8.75;;;1.70;;
70806;SDS011;58882;52.170;5.386;2023-04-24T13:46:57;9.50;;;1.80;;
70806;SDS011;58882;52.170;5.386;2023-04-24T13:49:24;8.43;;;1.92;;
70806;SDS011;58882;52.170;5.386;2023-04-24T13:51:52;9.13;;;2.10;;
70806;SDS011;58882;52.170;5.386;2023-04-24T13:54:21;11.95;;;2.08;;
70806;SDS011;58882;52.170;5.386;2023-04-24T13:56:49;8.48;;;2.00;;
70806;SDS011;58882;52.170;5.386;2023-04-24T13:59:17;9.05;;;1.92;;
70806;SDS011;58882;52.170;5.386;2023-04-24T14:01:48;8.60;;;2.20;;
70806;SDS011;58882;52.170;5.386;2023-04-24T14:04:15;9.23;;;2.13;;
70806;SDS011;58882;52.170;5.386;2023-04-24T14:06:43;10.65;;;2.13;;
70806;SDS011;58882;52.170;5.386;2023-04-24T14:09:10;8.48;;;1.88;;
70806;SDS011;58882;52.170;5.386;2023-04-24T14:11:37;8.75;;;2.30;;
70806;SDS011;58882;52.170;5.386;2023-04-24T14:14:04;10.65;;;2.10;;
70806;SDS011;58882;52.170;5.386;2023-04-24T14:16:31;8.27;;;1.95;;
70806;SDS011;58882;52.170;5.386;2023-04-24T14:18:58;9.32;;;2.17;;
70806;SDS011;58882;52.170;5.386;2023-04-24T14:21:25;9.07;;;1.88;;
70806;SDS011;58882;52.170;5.386;2023-04-24T14:23:52;8.23;;;2.00;;
70806;SDS011;58882;52.170;5.386;2023-04-24T14:26:19;8.23;;;2.10;;
70806;SDS011;58882;52.170;5.386;2023-04-24T14:28:46;12.32;;;2.55;;
70806;SDS011;58882;52.170;5.386;2023-04-24T14:31:12;14.38;;;2.58;;
70806;SDS011;58882;52.170;5.386;2023-04-24T14:33:41;11.63;;;2.40;;
70806;SDS011;58882;52.170;5.386;2023-04-24T14:36:08;8.88;;;2.35;;
70806;SDS011;58882;52.170;5.386;2023-04-24T14:38:35;12.23;;;2.00;;
70806;SDS011;58882;52.170;5.386;2023-04-24T14:41:02;10.90;;;2.10;;
70806;SDS011;58882;52.170;5.386;2023-04-24T14:43:39;12.27;;;2.70;;
70806;SDS011;58882;52.170;5.386;2023-04-24T14:46:06;10.93;;;2.38;;
70806;SDS011;58882;52.170;5.386;2023-04-24T14:48:33;11.18;;;2.55;;
70806;SDS011;58882;52.170;5.386;2023-04-24T14:51:00;12.40;;;2.25;;
70806;SDS011;58882;52.170;5.386;2023-04-24T14:53:27;10.10;;;1.98;;
70806;SDS011;58882;52.170;5.386;2023-04-24T14:55:54;13.68;;;2.67;;
70806;SDS011;58882;52.170;5.386;2023-04-24T14:58:20;12.68;;;3.03;;
70806;SDS011;58882;52.170;5.386;2023-04-24T15:00:47;10.43;;;2.40;;
70806;SDS011;58882;52.170;5.386;2023-04-24T15:03:18;10.52;;;2.65;;
70806;SDS011;58882;52.170;5.386;2023-04-24T15:05:45;9.45;;;2.00;;
70806;SDS011;58882;52.170;5.386;2023-04-24T15:08:12;12.48;;;2.35;;
70806;SDS011;58882;52.170;5.386;2023-04-24T15:10:39;10.38;;;2.40;;
70806;SDS011;58882;52.170;5.386;2023-04-24T15:13:06;9.07;;;2.13;;
70806;SDS011;58882;52.170;5.386;2023-04-24T15:15:33;9.65;;;2.28;;
70806;SDS011;58882;52.170;5.386;2023-04-24T15:18:00;10.85;;;2.08;;
70806;SDS011;58882;52.170;5.386;2023-04-24T15:20:27;7.97;;;2.28;;
70806;SDS011;58882;52.170;5.386;2023-04-24T15:22:54;10.15;;;2.20;;
70806;SDS011;58882;52.170;5.386;2023-04-24T15:25:21;13.73;;;2.90;;
70806;SDS011;58882;52.170;5.386;2023-04-24T15:27:48;10.60;;;2.55;;
70806;SDS011;58882;52.170;5.386;2023-04-24T15:30:15;8.45;;;2.85;;
70806;SDS011;58882;52.170;5.386;2023-04-24T15:32:42;10.13;;;2.97;;
70806;SDS011;58882;52.170;5.386;2023-04-24T15:35:09;8.95;;;2.50;;